sensor_id;sensor_type;location;lat;lon;timestamp;P1;durP1;ratioP1;P2;durP2;ratioP2
3465;SDS011;1747;48.884;9.160;2022-11-20T00:00:38;11.90;;;7.22;;
3465;SDS011;1747;48.884;9.160;2022-11-20T00:03:05;12.60;;;7.13;;
3465;SDS011;1747;48.884;9.160;2022-11-20T00:05:32;13.70;;;7.07;;
3465;SDS011;1747;48.884;9.160;2022-11-20T00:07:59;15.55;;;7.80;;
3465;SDS011;1747;48.884;9.160;2022-11-20T00:10:26;13.88;;;7.70;;
3465;SDS011;1747;48.884;9.160;2022-11-20T00:12:53;12.77;;;6.75;;
3465;SDS011;1747;48.884;9.160;2022-11-20T00:15:22;11.07;;;6.72;;
3465;SDS011;1747;48.884;9.160;2022-11-20T00:17:50;12.18;;;7.05;;
3465;SDS011;1747;48.884;9.160;2022-11-20T00:20:17;10.82;;;6.57;;
3465;SDS011;1747;48.884;9.160;2022-11-20T00:22:44;9.43;;;5.93;;
3465;SDS011;1747;48.884;9.160;2022-11-20T00:25:11;11.30;;;6.90;;
3465;SDS011;1747;48.884;9.160;2022-11-20T00:27:38;8.43;;;5.63;;
3465;SDS011;1747;48.884;9.160;2022-11-20T00:30:06;10.15;;;5.80;;
3465;SDS011;1747;48.884;9.160;2022-11-20T00:32:33;10.02;;;5.93;;
3465;SDS011;1747;48.884;9.160;2022-11-20T00:35:01;12.18;;;6.53;;
3465;SDS011;1747;48.884;9.160;2022-11-20T00:37:28;11.02;;;5.97;;
3465;SDS011;1747;48.884;9.160;2022-11-20T00:39:55;8.75;;;5.88;;
3465;SDS011;1747;48.884;9.160;2022-11-20T00:42:28;10.80;;;6.35;;
3465;SDS011;1747;48.884;9.160;2022-11-20T00:44:57;12.45;;;5.93;;
3465;SDS011;1747;48.884;9.160;2022-11-20T00:47:24;8.75;;;5.63;;
3465;SDS011;1747;48.884;9.160;2022-11-20T00:49:51;8.18;;;5.68;;
3465;SDS011;1747;48.884;9.160;2022-11-20T00:52:19;12.02;;;6.32;;
3465;SDS011;1747;48.884;9.160;2022-11-20T00:54:46;9.80;;;5.95;;
3465;SDS011;1747;48.884;9.160;2022-11-20T00:57:12;10.35;;;6.43;;
3465;SDS011;1747;48.884;9.160;2022-11-20T00:59:39;10.43;;;6.18;;
3465;SDS011;1747;48.884;9.160;2022-11-20T01:02:06;10.07;;;5.95;;
3465;SDS011;1747;48.884;9.160;2022-11-20T01:04:33;8.43;;;5.80;;
3465;SDS011;1747;48.884;9.160;2022-11-20T01:07:00;8.77;;;5.75;;
3465;SDS011;1747;48.884;9.160;2022-11-20T01:09:28;12.95;;;6.50;;
3465;SDS011;1747;48.884;9.160;2022-11-20T01:11:55;9.80;;;5.85;;
3465;SDS011;1747;48.884;9.160;2022-11-20T01:14:22;9.38;;;5.78;;
3465;SDS011;1747;48.884;9.160;2022-11-20T01:16:49;11.57;;;6.30;;
3465;SDS011;1747;48.884;9.160;2022-11-20T01:19:18;10.55;;;6.07;;
3465;SDS011;1747;48.884;9.160;2022-11-20T01:21:47;10.45;;;6.03;;
3465;SDS011;1747;48.884;9.160;2022-11-20T01:24:16;10.15;;;5.57;;
3465;SDS011;1747;48.884;9.160;2022-11-20T01:26:46;9.85;;;5.97;;
3465;SDS011;1747;48.884;9.160;2022-11-20T01:29:15;9.10;;;5.60;;
3465;SDS011;1747;48.884;9.160;2022-11-20T01:31:43;9.50;;;5.32;;
3465;SDS011;1747;48.884;9.160;2022-11-20T01:34:10;9.85;;;5.70;;
3465;SDS011;1747;48.884;9.160;2022-11-20T01:36:39;8.85;;;5.38;;
3465;SDS011;1747;48.884;9.160;2022-11-20T01:39:07;8.50;;;5.60;;
3465;SDS011;1747;48.884;9.160;2022-11-20T01:41:37;9.30;;;5.50;;
3465;SDS011;1747;48.884;9.160;2022-11-20T01:47:14;7.78;;;5.10;;
3465;SDS011;1747;48.884;9.160;2022-11-20T01:49:44;9.95;;;5.20;;
3465;SDS011;1747;48.884;9.160;2022-11-20T01:52:15;8.35;;;4.90;;
3465;SDS011;1747;48.884;9.160;2022-11-20T01:54:45;8.93;;;5.55;;
3465;SDS011;1747;48.884;9.160;2022-11-20T01:57:14;7.45;;;4.93;;
3465;SDS011;1747;48.884;9.160;2022-11-20T01:59:44;8.60;;;5.50;;
3465;SDS011;1747;48.884;9.160;2022-11-20T02:02:17;9.18;;;5.65;;
3465;SDS011;1747;48.884;9.160;2022-11-20T02:04:44;8.23;;;5.32;;
3465;SDS011;1747;48.884;9.160;2022-11-20T02:07:12;8.82;;;5.35;;
3465;SDS011;1747;48.884;9.160;2022-11-20T02:09:40;8.88;;;5.30;;
3465;SDS011;1747;48.884;9.160;2022-11-20T02:12:07;9.35;;;5.60;;
3465;SDS011;1747;48.884;9.160;2022-11-20T02:14:56;9.02;;;5.50;;
3465;SDS011;1747;48.884;9.160;2022-11-20T02:17:22;8.32;;;5.40;;
3465;SDS011;1747;48.884;9.160;2022-11-20T02:19:49;10.18;;;5.45;;
3465;SDS011;1747;48.884;9.160;2022-11-20T02:22:17;8.93;;;5.68;;
3465;SDS011;1747;48.884;9.160;2022-11-20T02:24:50;9.95;;;6.03;;
3465;SDS011;1747;48.884;9.160;2022-11-20T02:27:17;11.48;;;6.43;;
3465;SDS011;1747;48.884;9.160;2022-11-20T02:29:45;10.35;;;6.55;;
3465;SDS011;1747;48.884;9.160;2022-11-20T02:32:19;10.00;;;6.32;;
3465;SDS011;1747;48.884;9.160;2022-11-20T02:34:47;9.63;;;5.53;;
3465;SDS011;1747;48.884;9.160;2022-11-20T02:37:13;7.50;;;4.88;;
3465;SDS011;1747;48.884;9.160;2022-11-20T02:39:41;6.75;;;4.93;;
3465;SDS011;1747;48.884;9.160;2022-11-20T02:42:10;10.00;;;5.40;;
3465;SDS011;1747;48.884;9.160;2022-11-20T02:44:36;7.60;;;4.65;;
3465;SDS011;1747;48.884;9.160;2022-11-20T02:47:03;7.72;;;4.47;;
3465;SDS011;1747;48.884;9.160;2022-11-20T02:49:30;7.03;;;4.07;;
3465;SDS011;1747;48.884;9.160;2022-11-20T02:51:58;8.32;;;4.88;;
3465;SDS011;1747;48.884;9.160;2022-11-20T02:54:25;7.00;;;4.43;;
3465;SDS011;1747;48.884;9.160;2022-11-20T02:56:52;3.92;;;2.90;;
3465;SDS011;1747;48.884;9.160;2022-11-20T02:59:20;5.13;;;2.67;;
3465;SDS011;1747;48.884;9.160;2022-11-20T03:01:46;3.72;;;2.50;;
3465;SDS011;1747;48.884;9.160;2022-11-20T03:04:13;3.58;;;2.00;;
3465;SDS011;1747;48.884;9.160;2022-11-20T03:06:40;4.75;;;2.28;;
3465;SDS011;1747;48.884;9.160;2022-11-20T03:09:07;3.40;;;2.10;;
3465;SDS011;1747;48.884;9.160;2022-11-20T03:11:34;2.65;;;1.90;;
3465;SDS011;1747;48.884;9.160;2022-11-20T03:14:01;2.85;;;2.10;;
3465;SDS011;1747;48.884;9.160;2022-11-20T03:16:30;3.22;;;1.90;;
3465;SDS011;1747;48.884;9.160;2022-11-20T03:18:58;2.42;;;1.73;;
3465;SDS011;1747;48.884;9.160;2022-11-20T03:21:25;1.90;;;1.70;;
3465;SDS011;1747;48.884;9.160;2022-11-20T03:23:52;3.90;;;1.80;;
3465;SDS011;1747;48.884;9.160;2022-11-20T03:26:20;2.75;;;1.80;;
3465;SDS011;1747;48.884;9.160;2022-11-20T03:28:48;3.75;;;1.85;;
3465;SDS011;1747;48.884;9.160;2022-11-20T03:31:17;1.77;;;1.63;;
3465;SDS011;1747;48.884;9.160;2022-11-20T03:33:47;4.22;;;2.20;;
3465;SDS011;1747;48.884;9.160;2022-11-20T03:36:14;3.53;;;1.90;;
3465;SDS011;1747;48.884;9.160;2022-11-20T03:38:43;2.58;;;1.90;;
3465;SDS011;1747;48.884;9.160;2022-11-20T03:41:10;4.00;;;2.10;;
3465;SDS011;1747;48.884;9.160;2022-11-20T03:43:38;2.08;;;1.67;;
3465;SDS011;1747;48.884;9.160;2022-11-20T03:46:05;2.05;;;1.75;;
3465;SDS011;1747;48.884;9.160;2022-11-20T03:48:34;3.13;;;2.15;;
3465;SDS011;1747;48.884;9.160;2022-11-20T03:51:12;2.72;;;2.15;;
3465;SDS011;1747;48.884;9.160;2022-11-20T03:53:40;2.72;;;2.05;;
3465;SDS011;1747;48.884;9.160;2022-11-20T03:56:08;2.85;;;2.00;;
3465;SDS011;1747;48.884;9.160;2022-11-20T03:58:35;7.10;;;2.30;;
3465;SDS011;1747;48.884;9.160;2022-11-20T04:01:05;3.92;;;2.40;;
3465;SDS011;1747;48.884;9.160;2022-11-20T04:03:32;4.32;;;2.47;;
3465;SDS011;1747;48.884;9.160;2022-11-20T04:06:04;3.95;;;2.42;;
3465;SDS011;1747;48.884;9.160;2022-11-20T04:08:32;2.58;;;2.00;;
3465;SDS011;1747;48.884;9.160;2022-11-20T04:11:09;5.70;;;2.50;;
3465;SDS011;1747;48.884;9.160;2022-11-20T04:13:37;2.75;;;2.00;;
3465;SDS011;1747;48.884;9.160;2022-11-20T04:16:04;2.33;;;1.65;;
3465;SDS011;1747;48.884;9.160;2022-11-20T04:18:32;2.75;;;1.80;;
3465;SDS011;1747;48.884;9.160;2022-11-20T04:20:59;2.65;;;2.08;;
3465;SDS011;1747;48.884;9.160;2022-11-20T04:23:26;2.20;;;2.00;;
3465;SDS011;1747;48.884;9.160;2022-11-20T04:26:00;4.75;;;2.10;;
3465;SDS011;1747;48.884;9.160;2022-11-20T04:28:27;3.13;;;2.08;;
3465;SDS011;1747;48.884;9.160;2022-11-20T04:30:54;2.67;;;2.22;;
3465;SDS011;1747;48.884;9.160;2022-11-20T04:33:27;3.20;;;2.50;;
3465;SDS011;1747;48.884;9.160;2022-11-20T04:35:53;3.63;;;2.10;;
3465;SDS011;1747;48.884;9.160;2022-11-20T04:38:20;3.08;;;2.05;;
3465;SDS011;1747;48.884;9.160;2022-11-20T04:40:57;2.65;;;2.00;;
3465;SDS011;1747;48.884;9.160;2022-11-20T04:43:25;3.17;;;2.20;;
3465;SDS011;1747;48.884;9.160;2022-11-20T04:48:32;2.95;;;2.20;;
3465;SDS011;1747;48.884;9.160;2022-11-20T04:51:06;3.63;;;2.50;;
3465;SDS011;1747;48.884;9.160;2022-11-20T04:53:37;2.45;;;2.25;;
3465;SDS011;1747;48.884;9.160;2022-11-20T04:56:09;3.35;;;2.42;;
3465;SDS011;1747;48.884;9.160;2022-11-20T04:58:37;2.50;;;2.03;;
3465;SDS011;1747;48.884;9.160;2022-11-20T05:01:06;4.50;;;2.30;;
3465;SDS011;1747;48.884;9.160;2022-11-20T05:03:36;3.13;;;2.53;;
3465;SDS011;1747;48.884;9.160;2022-11-20T05:06:06;3.15;;;2.13;;
3465;SDS011;1747;48.884;9.160;2022-11-20T05:08:34;3.08;;;2.00;;
3465;SDS011;1747;48.884;9.160;2022-11-20T05:11:02;4.43;;;2.35;;
3465;SDS011;1747;48.884;9.160;2022-11-20T05:13:30;5.32;;;2.38;;
3465;SDS011;1747;48.884;9.160;2022-11-20T05:16:00;3.70;;;2.38;;
3465;SDS011;1747;48.884;9.160;2022-11-20T05:18:28;4.18;;;2.17;;
3465;SDS011;1747;48.884;9.160;2022-11-20T05:20:55;3.63;;;1.90;;
3465;SDS011;1747;48.884;9.160;2022-11-20T05:23:22;3.00;;;2.00;;
3465;SDS011;1747;48.884;9.160;2022-11-20T05:25:51;2.97;;;2.30;;
3465;SDS011;1747;48.884;9.160;2022-11-20T05:28:19;4.18;;;2.67;;
3465;SDS011;1747;48.884;9.160;2022-11-20T05:30:47;3.63;;;2.13;;
3465;SDS011;1747;48.884;9.160;2022-11-20T05:33:14;4.18;;;2.17;;
3465;SDS011;1747;48.884;9.160;2022-11-20T05:35:41;2.33;;;1.90;;
3465;SDS011;1747;48.884;9.160;2022-11-20T05:38:08;2.80;;;2.05;;
3465;SDS011;1747;48.884;9.160;2022-11-20T05:40:35;5.60;;;2.05;;
3465;SDS011;1747;48.884;9.160;2022-11-20T05:43:02;2.28;;;1.90;;
3465;SDS011;1747;48.884;9.160;2022-11-20T05:45:29;2.53;;;2.03;;
3465;SDS011;1747;48.884;9.160;2022-11-20T05:47:58;3.05;;;1.83;;
3465;SDS011;1747;48.884;9.160;2022-11-20T05:50:26;3.03;;;1.80;;
3465;SDS011;1747;48.884;9.160;2022-11-20T05:52:53;3.03;;;2.08;;
3465;SDS011;1747;48.884;9.160;2022-11-20T05:55:19;3.40;;;1.95;;
3465;SDS011;1747;48.884;9.160;2022-11-20T05:57:46;3.75;;;2.20;;
3465;SDS011;1747;48.884;9.160;2022-11-20T06:00:13;2.17;;;1.75;;
3465;SDS011;1747;48.884;9.160;2022-11-20T06:02:41;2.92;;;1.90;;
3465;SDS011;1747;48.884;9.160;2022-11-20T06:05:09;3.65;;;2.40;;
3465;SDS011;1747;48.884;9.160;2022-11-20T06:07:36;2.92;;;1.90;;
3465;SDS011;1747;48.884;9.160;2022-11-20T06:10:03;4.18;;;2.20;;
3465;SDS011;1747;48.884;9.160;2022-11-20T06:12:31;2.80;;;2.08;;
3465;SDS011;1747;48.884;9.160;2022-11-20T06:14:58;2.60;;;1.92;;
3465;SDS011;1747;48.884;9.160;2022-11-20T06:17:25;2.53;;;1.98;;
3465;SDS011;1747;48.884;9.160;2022-11-20T06:19:52;3.60;;;2.25;;
3465;SDS011;1747;48.884;9.160;2022-11-20T06:22:20;3.38;;;2.42;;
3465;SDS011;1747;48.884;9.160;2022-11-20T06:24:47;3.53;;;2.00;;
3465;SDS011;1747;48.884;9.160;2022-11-20T06:27:15;3.88;;;2.20;;
3465;SDS011;1747;48.884;9.160;2022-11-20T06:29:42;3.42;;;2.08;;
3465;SDS011;1747;48.884;9.160;2022-11-20T06:32:09;3.53;;;1.90;;
3465;SDS011;1747;48.884;9.160;2022-11-20T06:34:36;3.80;;;2.03;;
3465;SDS011;1747;48.884;9.160;2022-11-20T06:37:03;3.75;;;2.00;;
3465;SDS011;1747;48.884;9.160;2022-11-20T06:39:31;2.95;;;2.05;;
3465;SDS011;1747;48.884;9.160;2022-11-20T06:41:58;2.72;;;2.22;;
3465;SDS011;1747;48.884;9.160;2022-11-20T06:44:25;3.63;;;2.17;;
3465;SDS011;1747;48.884;9.160;2022-11-20T06:46:51;2.80;;;2.15;;
3465;SDS011;1747;48.884;9.160;2022-11-20T06:49:18;2.40;;;1.92;;
3465;SDS011;1747;48.884;9.160;2022-11-20T06:51:45;2.30;;;1.90;;
3465;SDS011;1747;48.884;9.160;2022-11-20T06:54:12;3.65;;;2.10;;
3465;SDS011;1747;48.884;9.160;2022-11-20T06:56:40;2.95;;;1.65;;
3465;SDS011;1747;48.884;9.160;2022-11-20T06:59:07;3.40;;;2.20;;
3465;SDS011;1747;48.884;9.160;2022-11-20T07:01:33;3.00;;;1.90;;
3465;SDS011;1747;48.884;9.160;2022-11-20T07:04:01;2.60;;;1.75;;
3465;SDS011;1747;48.884;9.160;2022-11-20T07:06:28;2.70;;;2.05;;
3465;SDS011;1747;48.884;9.160;2022-11-20T07:08:54;3.03;;;2.05;;
3465;SDS011;1747;48.884;9.160;2022-11-20T07:11:22;2.63;;;1.73;;
3465;SDS011;1747;48.884;9.160;2022-11-20T07:13:50;2.08;;;1.83;;
3465;SDS011;1747;48.884;9.160;2022-11-20T07:16:17;3.80;;;1.80;;
3465;SDS011;1747;48.884;9.160;2022-11-20T07:18:44;4.45;;;1.75;;
3465;SDS011;1747;48.884;9.160;2022-11-20T07:21:11;2.55;;;1.52;;
3465;SDS011;1747;48.884;9.160;2022-11-20T07:23:38;3.72;;;1.98;;
3465;SDS011;1747;48.884;9.160;2022-11-20T07:26:05;2.45;;;1.80;;
3465;SDS011;1747;48.884;9.160;2022-11-20T07:28:33;4.65;;;2.00;;
3465;SDS011;1747;48.884;9.160;2022-11-20T07:31:01;1.65;;;1.38;;
3465;SDS011;1747;48.884;9.160;2022-11-20T07:33:29;2.90;;;1.83;;
3465;SDS011;1747;48.884;9.160;2022-11-20T07:35:58;2.22;;;1.65;;
3465;SDS011;1747;48.884;9.160;2022-11-20T07:38:25;2.17;;;1.40;;
3465;SDS011;1747;48.884;9.160;2022-11-20T07:40:53;2.05;;;1.52;;
3465;SDS011;1747;48.884;9.160;2022-11-20T07:43:22;3.88;;;1.50;;
3465;SDS011;1747;48.884;9.160;2022-11-20T07:45:50;3.45;;;1.50;;
3465;SDS011;1747;48.884;9.160;2022-11-20T07:48:18;2.30;;;1.50;;
3465;SDS011;1747;48.884;9.160;2022-11-20T07:50:45;3.50;;;1.50;;
3465;SDS011;1747;48.884;9.160;2022-11-20T07:53:12;2.92;;;1.63;;
3465;SDS011;1747;48.884;9.160;2022-11-20T07:55:45;2.72;;;1.50;;
3465;SDS011;1747;48.884;9.160;2022-11-20T07:58:13;2.22;;;1.67;;
3465;SDS011;1747;48.884;9.160;2022-11-20T08:00:40;2.63;;;1.80;;
3465;SDS011;1747;48.884;9.160;2022-11-20T08:03:07;2.67;;;1.60;;
3465;SDS011;1747;48.884;9.160;2022-11-20T08:05:35;2.70;;;1.38;;
3465;SDS011;1747;48.884;9.160;2022-11-20T08:08:02;3.50;;;2.30;;
3465;SDS011;1747;48.884;9.160;2022-11-20T08:10:29;1.73;;;1.50;;
3465;SDS011;1747;48.884;9.160;2022-11-20T08:12:56;2.60;;;1.70;;
3465;SDS011;1747;48.884;9.160;2022-11-20T08:15:41;4.45;;;3.35;;
3465;SDS011;1747;48.884;9.160;2022-11-20T08:18:08;2.08;;;1.52;;
3465;SDS011;1747;48.884;9.160;2022-11-20T08:20:37;1.95;;;1.40;;
3465;SDS011;1747;48.884;9.160;2022-11-20T08:23:04;4.50;;;1.30;;
3465;SDS011;1747;48.884;9.160;2022-11-20T08:25:33;2.17;;;1.40;;
3465;SDS011;1747;48.884;9.160;2022-11-20T08:28:01;2.63;;;1.30;;
3465;SDS011;1747;48.884;9.160;2022-11-20T08:30:29;2.22;;;0.90;;
3465;SDS011;1747;48.884;9.160;2022-11-20T08:33:00;1.30;;;1.10;;
3465;SDS011;1747;48.884;9.160;2022-11-20T08:35:28;1.38;;;1.08;;
3465;SDS011;1747;48.884;9.160;2022-11-20T08:37:56;2.22;;;1.17;;
3465;SDS011;1747;48.884;9.160;2022-11-20T08:40:23;1.48;;;1.17;;
3465;SDS011;1747;48.884;9.160;2022-11-20T08:42:50;1.90;;;1.58;;
3465;SDS011;1747;48.884;9.160;2022-11-20T08:45:18;1.75;;;1.13;;
3465;SDS011;1747;48.884;9.160;2022-11-20T08:47:45;1.67;;;1.00;;
3465;SDS011;1747;48.884;9.160;2022-11-20T08:50:13;1.67;;;1.00;;
3465;SDS011;1747;48.884;9.160;2022-11-20T08:52:41;1.30;;;0.70;;
3465;SDS011;1747;48.884;9.160;2022-11-20T08:55:10;2.88;;;0.70;;
3465;SDS011;1747;48.884;9.160;2022-11-20T08:57:37;0.70;;;0.60;;
3465;SDS011;1747;48.884;9.160;2022-11-20T09:00:04;1.45;;;0.75;;
3465;SDS011;1747;48.884;9.160;2022-11-20T09:02:32;1.23;;;0.90;;
3465;SDS011;1747;48.884;9.160;2022-11-20T09:04:59;2.15;;;0.70;;
3465;SDS011;1747;48.884;9.160;2022-11-20T09:07:27;0.60;;;0.50;;
3465;SDS011;1747;48.884;9.160;2022-11-20T09:09:54;1.00;;;0.60;;
3465;SDS011;1747;48.884;9.160;2022-11-20T09:12:22;0.60;;;0.60;;
3465;SDS011;1747;48.884;9.160;2022-11-20T09:14:49;3.05;;;0.63;;
3465;SDS011;1747;48.884;9.160;2022-11-20T09:17:16;0.95;;;0.60;;
3465;SDS011;1747;48.884;9.160;2022-11-20T09:19:43;2.38;;;0.60;;
3465;SDS011;1747;48.884;9.160;2022-11-20T09:22:10;2.28;;;1.63;;
3465;SDS011;1747;48.884;9.160;2022-11-20T09:24:36;3.03;;;2.08;;
3465;SDS011;1747;48.884;9.160;2022-11-20T09:27:03;0.80;;;0.70;;
3465;SDS011;1747;48.884;9.160;2022-11-20T09:29:32;0.77;;;0.77;;
3465;SDS011;1747;48.884;9.160;2022-11-20T09:31:58;1.35;;;0.80;;
3465;SDS011;1747;48.884;9.160;2022-11-20T09:34:25;1.23;;;0.65;;
3465;SDS011;1747;48.884;9.160;2022-11-20T09:36:52;0.55;;;0.50;;
3465;SDS011;1747;48.884;9.160;2022-11-20T09:39:19;1.77;;;1.63;;
3465;SDS011;1747;48.884;9.160;2022-11-20T09:41:58;1.40;;;1.10;;
3465;SDS011;1747;48.884;9.160;2022-11-20T09:44:40;1.63;;;1.52;;
3465;SDS011;1747;48.884;9.160;2022-11-20T09:47:33;0.98;;;0.88;;
3465;SDS011;1747;48.884;9.160;2022-11-20T09:50:14;0.93;;;0.80;;
3465;SDS011;1747;48.884;9.160;2022-11-20T09:52:51;1.10;;;0.80;;
3465;SDS011;1747;48.884;9.160;2022-11-20T09:55:34;1.58;;;1.23;;
3465;SDS011;1747;48.884;9.160;2022-11-20T09:58:04;1.67;;;0.80;;
3465;SDS011;1747;48.884;9.160;2022-11-20T10:00:34;1.02;;;0.80;;
3465;SDS011;1747;48.884;9.160;2022-11-20T10:03:03;1.80;;;0.95;;
3465;SDS011;1747;48.884;9.160;2022-11-20T10:05:41;1.33;;;0.90;;
3465;SDS011;1747;48.884;9.160;2022-11-20T10:08:14;0.70;;;0.70;;
3465;SDS011;1747;48.884;9.160;2022-11-20T10:10:46;1.83;;;0.90;;
3465;SDS011;1747;48.884;9.160;2022-11-20T10:13:19;1.77;;;0.90;;
3465;SDS011;1747;48.884;9.160;2022-11-20T10:15:58;2.42;;;0.77;;
3465;SDS011;1747;48.884;9.160;2022-11-20T10:18:47;1.77;;;0.77;;
3465;SDS011;1747;48.884;9.160;2022-11-20T10:21:23;1.38;;;0.88;;
3465;SDS011;1747;48.884;9.160;2022-11-20T10:24:04;0.80;;;0.80;;
3465;SDS011;1747;48.884;9.160;2022-11-20T10:26:51;2.10;;;0.95;;
3465;SDS011;1747;48.884;9.160;2022-11-20T10:29:27;1.33;;;0.90;;
3465;SDS011;1747;48.884;9.160;2022-11-20T10:32:01;1.15;;;1.02;;
3465;SDS011;1747;48.884;9.160;2022-11-20T10:34:31;3.88;;;1.40;;
3465;SDS011;1747;48.884;9.160;2022-11-20T10:37:05;7.00;;;5.45;;
3465;SDS011;1747;48.884;9.160;2022-11-20T10:39:37;2.38;;;1.52;;
3465;SDS011;1747;48.884;9.160;2022-11-20T10:42:08;3.45;;;2.85;;
3465;SDS011;1747;48.884;9.160;2022-11-20T10:44:40;2.38;;;2.00;;
3465;SDS011;1747;48.884;9.160;2022-11-20T10:47:30;4.25;;;3.80;;
3465;SDS011;1747;48.884;9.160;2022-11-20T10:49:57;4.03;;;3.25;;
3465;SDS011;1747;48.884;9.160;2022-11-20T10:52:31;1.27;;;1.00;;
3465;SDS011;1747;48.884;9.160;2022-11-20T10:55:06;9.10;;;4.25;;
3465;SDS011;1747;48.884;9.160;2022-11-20T10:57:45;5.07;;;2.42;;
3465;SDS011;1747;48.884;9.160;2022-11-20T11:00:18;6.65;;;4.38;;
3465;SDS011;1747;48.884;9.160;2022-11-20T11:02:48;2.28;;;1.90;;
3465;SDS011;1747;48.884;9.160;2022-11-20T11:05:32;1.90;;;1.67;;
3465;SDS011;1747;48.884;9.160;2022-11-20T11:08:02;4.47;;;2.90;;
3465;SDS011;1747;48.884;9.160;2022-11-20T11:10:33;4.15;;;2.10;;
3465;SDS011;1747;48.884;9.160;2022-11-20T11:13:18;3.20;;;2.20;;
3465;SDS011;1747;48.884;9.160;2022-11-20T11:15:45;3.55;;;2.10;;
3465;SDS011;1747;48.884;9.160;2022-11-20T11:18:22;2.95;;;2.30;;
3465;SDS011;1747;48.884;9.160;2022-11-20T11:20:49;2.95;;;1.30;;
3465;SDS011;1747;48.884;9.160;2022-11-20T11:23:22;4.22;;;1.92;;
3465;SDS011;1747;48.884;9.160;2022-11-20T11:25:56;3.97;;;2.30;;
3465;SDS011;1747;48.884;9.160;2022-11-20T11:28:24;2.22;;;1.30;;
3465;SDS011;1747;48.884;9.160;2022-11-20T11:30:53;5.82;;;2.00;;
3465;SDS011;1747;48.884;9.160;2022-11-20T11:33:23;7.18;;;2.25;;
3465;SDS011;1747;48.884;9.160;2022-11-20T11:35:52;4.90;;;1.90;;
3465;SDS011;1747;48.884;9.160;2022-11-20T11:38:22;4.38;;;2.30;;
3465;SDS011;1747;48.884;9.160;2022-11-20T11:40:55;3.55;;;2.13;;
3465;SDS011;1747;48.884;9.160;2022-11-20T11:43:23;7.68;;;3.00;;
3465;SDS011;1747;48.884;9.160;2022-11-20T11:46:20;2.08;;;1.35;;
3465;SDS011;1747;48.884;9.160;2022-11-20T11:48:56;3.38;;;2.00;;
3465;SDS011;1747;48.884;9.160;2022-11-20T11:51:24;4.05;;;1.50;;
3465;SDS011;1747;48.884;9.160;2022-11-20T11:53:54;2.03;;;1.40;;
3465;SDS011;1747;48.884;9.160;2022-11-20T11:56:24;2.72;;;1.33;;
3465;SDS011;1747;48.884;9.160;2022-11-20T11:59:00;2.20;;;1.27;;
3465;SDS011;1747;48.884;9.160;2022-11-20T12:01:36;2.35;;;1.52;;
3465;SDS011;1747;48.884;9.160;2022-11-20T12:04:13;2.95;;;1.20;;
3465;SDS011;1747;48.884;9.160;2022-11-20T12:06:45;1.88;;;1.40;;
3465;SDS011;1747;48.884;9.160;2022-11-20T12:09:16;1.55;;;1.15;;
3465;SDS011;1747;48.884;9.160;2022-11-20T12:11:46;1.33;;;1.00;;
3465;SDS011;1747;48.884;9.160;2022-11-20T12:14:21;1.02;;;0.75;;
3465;SDS011;1747;48.884;9.160;2022-11-20T12:16:53;1.42;;;0.95;;
3465;SDS011;1747;48.884;9.160;2022-11-20T12:19:23;2.28;;;1.08;;
3465;SDS011;1747;48.884;9.160;2022-11-20T12:21:54;1.27;;;1.02;;
3465;SDS011;1747;48.884;9.160;2022-11-20T12:24:32;2.55;;;1.10;;
3465;SDS011;1747;48.884;9.160;2022-11-20T12:27:13;2.05;;;1.30;;
3465;SDS011;1747;48.884;9.160;2022-11-20T12:29:52;1.45;;;0.90;;
3465;SDS011;1747;48.884;9.160;2022-11-20T12:32:35;1.15;;;0.77;;
3465;SDS011;1747;48.884;9.160;2022-11-20T12:35:23;1.92;;;0.90;;
3465;SDS011;1747;48.884;9.160;2022-11-20T12:38:39;5.25;;;0.98;;
3465;SDS011;1747;48.884;9.160;2022-11-20T12:41:43;2.22;;;0.90;;
3465;SDS011;1747;48.884;9.160;2022-11-20T12:44:38;3.33;;;0.90;;
3465;SDS011;1747;48.884;9.160;2022-11-20T12:47:38;2.35;;;1.00;;
3465;SDS011;1747;48.884;9.160;2022-11-20T12:50:21;2.00;;;0.90;;
3465;SDS011;1747;48.884;9.160;2022-11-20T12:52:53;1.75;;;0.80;;
3465;SDS011;1747;48.884;9.160;2022-11-20T12:55:25;1.92;;;0.88;;
3465;SDS011;1747;48.884;9.160;2022-11-20T12:58:00;1.55;;;0.88;;
3465;SDS011;1747;48.884;9.160;2022-11-20T13:00:36;2.30;;;0.95;;
3465;SDS011;1747;48.884;9.160;2022-11-20T13:03:14;3.40;;;1.05;;
3465;SDS011;1747;48.884;9.160;2022-11-20T13:05:53;2.85;;;1.00;;
3465;SDS011;1747;48.884;9.160;2022-11-20T13:08:28;5.18;;;0.93;;
3465;SDS011;1747;48.884;9.160;2022-11-20T13:11:00;2.92;;;1.10;;
3465;SDS011;1747;48.884;9.160;2022-11-20T13:13:35;1.90;;;0.80;;
3465;SDS011;1747;48.884;9.160;2022-11-20T13:16:08;1.88;;;0.90;;
3465;SDS011;1747;48.884;9.160;2022-11-20T13:18:40;2.22;;;0.88;;
3465;SDS011;1747;48.884;9.160;2022-11-20T13:21:13;1.23;;;0.73;;
3465;SDS011;1747;48.884;9.160;2022-11-20T13:23:42;0.77;;;0.63;;
3465;SDS011;1747;48.884;9.160;2022-11-20T13:26:15;2.33;;;0.88;;
3465;SDS011;1747;48.884;9.160;2022-11-20T13:28:45;2.58;;;0.85;;
3465;SDS011;1747;48.884;9.160;2022-11-20T13:31:23;1.88;;;0.90;;
3465;SDS011;1747;48.884;9.160;2022-11-20T13:33:57;2.10;;;0.70;;
3465;SDS011;1747;48.884;9.160;2022-11-20T13:36:26;1.75;;;0.77;;
3465;SDS011;1747;48.884;9.160;2022-11-20T13:38:56;1.83;;;0.90;;
3465;SDS011;1747;48.884;9.160;2022-11-20T13:41:25;2.60;;;0.77;;
3465;SDS011;1747;48.884;9.160;2022-11-20T13:43:59;1.92;;;0.68;;
3465;SDS011;1747;48.884;9.160;2022-11-20T13:46:36;3.17;;;0.80;;
3465;SDS011;1747;48.884;9.160;2022-11-20T13:49:07;1.98;;;0.70;;
3465;SDS011;1747;48.884;9.160;2022-11-20T13:51:37;2.35;;;0.88;;
3465;SDS011;1747;48.884;9.160;2022-11-20T13:57:22;2.20;;;0.85;;
3465;SDS011;1747;48.884;9.160;2022-11-20T14:00:13;1.92;;;0.70;;
3465;SDS011;1747;48.884;9.160;2022-11-20T14:02:42;1.65;;;0.82;;
3465;SDS011;1747;48.884;9.160;2022-11-20T14:05:15;1.10;;;0.57;;
3465;SDS011;1747;48.884;9.160;2022-11-20T14:07:46;0.93;;;0.60;;
3465;SDS011;1747;48.884;9.160;2022-11-20T14:10:20;2.20;;;0.57;;
3465;SDS011;1747;48.884;9.160;2022-11-20T14:12:48;1.15;;;0.55;;
3465;SDS011;1747;48.884;9.160;2022-11-20T14:15:24;1.83;;;0.57;;
3465;SDS011;1747;48.884;9.160;2022-11-20T14:17:52;1.05;;;0.50;;
3465;SDS011;1747;48.884;9.160;2022-11-20T14:20:20;1.88;;;0.68;;
3465;SDS011;1747;48.884;9.160;2022-11-20T14:22:52;1.55;;;0.75;;
3465;SDS011;1747;48.884;9.160;2022-11-20T14:25:22;3.20;;;0.60;;
3465;SDS011;1747;48.884;9.160;2022-11-20T14:27:52;1.05;;;0.70;;
3465;SDS011;1747;48.884;9.160;2022-11-20T14:30:21;1.40;;;0.60;;
3465;SDS011;1747;48.884;9.160;2022-11-20T14:32:49;1.17;;;0.90;;
3465;SDS011;1747;48.884;9.160;2022-11-20T14:35:20;1.25;;;0.73;;
3465;SDS011;1747;48.884;9.160;2022-11-20T14:37:49;1.80;;;0.82;;
3465;SDS011;1747;48.884;9.160;2022-11-20T14:40:26;0.88;;;0.60;;
3465;SDS011;1747;48.884;9.160;2022-11-20T14:42:54;1.23;;;0.75;;
3465;SDS011;1747;48.884;9.160;2022-11-20T14:45:21;1.13;;;0.60;;
3465;SDS011;1747;48.884;9.160;2022-11-20T14:47:50;1.95;;;1.00;;
3465;SDS011;1747;48.884;9.160;2022-11-20T14:50:19;2.13;;;1.15;;
3465;SDS011;1747;48.884;9.160;2022-11-20T14:52:52;2.15;;;1.23;;
3465;SDS011;1747;48.884;9.160;2022-11-20T14:55:28;1.98;;;1.00;;
3465;SDS011;1747;48.884;9.160;2022-11-20T14:57:58;3.13;;;1.75;;
3465;SDS011;1747;48.884;9.160;2022-11-20T15:00:26;2.40;;;1.40;;
3465;SDS011;1747;48.884;9.160;2022-11-20T15:02:53;2.20;;;1.00;;
3465;SDS011;1747;48.884;9.160;2022-11-20T15:05:21;1.85;;;1.00;;
3465;SDS011;1747;48.884;9.160;2022-11-20T15:07:50;3.17;;;2.42;;
3465;SDS011;1747;48.884;9.160;2022-11-20T15:10:31;1.42;;;0.90;;
3465;SDS011;1747;48.884;9.160;2022-11-20T15:12:59;1.75;;;1.10;;
3465;SDS011;1747;48.884;9.160;2022-11-20T15:15:29;2.38;;;0.80;;
3465;SDS011;1747;48.884;9.160;2022-11-20T15:17:59;2.22;;;1.10;;
3465;SDS011;1747;48.884;9.160;2022-11-20T15:20:27;3.20;;;1.23;;
3465;SDS011;1747;48.884;9.160;2022-11-20T15:22:58;1.33;;;0.85;;
3465;SDS011;1747;48.884;9.160;2022-11-20T15:25:25;4.43;;;1.77;;
3465;SDS011;1747;48.884;9.160;2022-11-20T15:27:56;5.60;;;2.88;;
3465;SDS011;1747;48.884;9.160;2022-11-20T15:30:23;3.60;;;2.45;;
3465;SDS011;1747;48.884;9.160;2022-11-20T15:32:50;2.60;;;1.45;;
3465;SDS011;1747;48.884;9.160;2022-11-20T15:35:17;2.47;;;1.05;;
3465;SDS011;1747;48.884;9.160;2022-11-20T15:37:44;2.83;;;1.20;;
3465;SDS011;1747;48.884;9.160;2022-11-20T15:40:11;4.38;;;1.83;;
3465;SDS011;1747;48.884;9.160;2022-11-20T15:42:38;2.72;;;1.52;;